Terminal Aerodrome Forecast
Issued by NWS Cleveland, OH

Home | Current Version | Previous Version | Graphics & Text | Print | Product List | Glossary On
Versions: 1 2 3 4 5 6 7 8 9 10 11 12 13 14 15 16 17 18 19 20 21 22 23 24
000
FTUS41 KCLE 020800 AAB
TAFMFD
TAF AMD
KMFD 020833Z 0209/0306 22005KT P6SM SCT020 BKN030
     FM021100 25009KT 5SM -SHRA BR VCTS OVC020CB
      TEMPO 0211/0215 3SM SHRA BR OVC006
     FM021500 24009KT P6SM VCSH BKN012
     FM021800 24009KT P6SM SCT035 BKN060
     FM022100 23008KT P6SM SCT060 BKN250
     FM030200 20003KT 5SM HZ BKN060=

USA.gov is the U.S. government's official web portal to all federal, state and local government web resources and services.